createdAt,value
2023-04-10T00:02:23.346Z,15.40
2023-04-10T00:05:10.973Z,15.13
2023-04-10T00:07:58.005Z,15.10
2023-04-10T00:10:45.050Z,14.23
2023-04-10T00:13:32.731Z,14.63
2023-04-10T00:16:20.159Z,15.38
2023-04-10T00:19:08.234Z,15.68
2023-04-10T00:21:57.819Z,17.52
2023-04-10T00:24:44.865Z,16.92
2023-04-10T00:27:31.961Z,16.80
2023-04-10T00:30:19.270Z,19.40
2023-04-10T00:33:06.601Z,17.98
2023-04-10T00:35:53.638Z,16.65
2023-04-10T00:38:40.781Z,16.90
2023-04-10T00:41:29.645Z,16.85
2023-04-10T00:44:17.151Z,17.23
2023-04-10T00:47:05.624Z,17.17
2023-04-10T00:49:53.570Z,16.17
2023-04-10T00:52:41.084Z,18.17
2023-04-10T00:55:28.249Z,18.05
2023-04-10T00:58:15.487Z,17.63
2023-04-10T01:01:04.143Z,18.75
2023-04-10T01:03:52.841Z,17.58
2023-04-10T01:06:58.220Z,19.30
2023-04-10T01:09:54.399Z,19.08
2023-04-10T01:13:05.971Z,18.40
2023-04-10T01:16:01.766Z,18.88
2023-04-10T01:19:07.358Z,18.95
2023-04-10T01:21:56.207Z,20.10
2023-04-10T01:25:09.409Z,18.42
2023-04-10T01:28:25.971Z,19.65
2023-04-10T01:31:18.667Z,18.83
2023-04-10T01:34:10.603Z,19.38
2023-04-10T01:37:04.086Z,20.05
2023-04-10T01:39:59.181Z,20.13
2023-04-10T01:42:53.299Z,19.60
2023-04-10T01:45:43.798Z,21.00
2023-04-10T01:48:31.343Z,20.25
2023-04-10T01:51:18.877Z,18.40
2023-04-10T01:54:07.218Z,19.63
2023-04-10T01:56:54.817Z,19.60
2023-04-10T01:59:42.571Z,20.20
2023-04-10T02:02:34.051Z,19.42
2023-04-10T02:05:22.389Z,18.50
2023-04-10T02:08:15.844Z,19.67
2023-04-10T02:11:23.596Z,18.88
2023-04-10T02:14:12.284Z,19.02
2023-04-10T02:17:01.533Z,19.40
2023-04-10T02:19:50.408Z,20.23
2023-04-10T02:22:37.569Z,18.83
2023-04-10T02:25:24.705Z,18.08
2023-04-10T02:28:11.820Z,19.40
2023-04-10T02:30:58.900Z,18.17
2023-04-10T02:33:46.000Z,19.02
2023-04-10T02:36:34.129Z,18.48
2023-04-10T02:39:21.284Z,18.85
2023-04-10T02:42:08.487Z,19.27
2023-04-10T02:44:56.210Z,18.73
2023-04-10T02:47:43.299Z,20.08
2023-04-10T02:50:32.477Z,18.52
2023-04-10T02:53:20.100Z,18.45
2023-04-10T02:56:08.289Z,20.23
2023-04-10T02:58:56.242Z,18.13
2023-04-10T03:01:43.486Z,18.50
2023-04-10T03:04:32.623Z,19.75
2023-04-10T03:07:19.745Z,19.63
2023-04-10T03:10:07.357Z,18.73
2023-04-10T03:12:54.354Z,19.67
2023-04-10T03:15:41.519Z,19.02
2023-04-10T03:18:28.645Z,20.35
2023-04-10T03:21:16.065Z,19.15
2023-04-10T03:24:03.164Z,19.45
2023-04-10T03:26:50.660Z,19.25
2023-04-10T03:29:37.696Z,18.63
2023-04-10T03:32:24.844Z,18.98
2023-04-10T03:35:12.130Z,18.33
2023-04-10T03:37:59.205Z,19.40
2023-04-10T03:40:46.322Z,17.10
2023-04-10T03:43:33.463Z,18.30
2023-04-10T03:46:20.660Z,17.38
2023-04-10T03:49:07.756Z,17.75
2023-04-10T03:51:54.987Z,18.38
2023-04-10T03:54:42.705Z,18.55
2023-04-10T03:57:29.775Z,18.02
2023-04-10T04:00:17.255Z,17.60
2023-04-10T04:03:05.338Z,17.92
2023-04-10T04:05:52.606Z,19.02
2023-04-10T04:08:39.714Z,17.20
2023-04-10T04:11:27.863Z,17.60
2023-04-10T04:14:14.944Z,19.90
2023-04-10T04:17:02.093Z,19.20
2023-04-10T04:19:49.239Z,19.05
2023-04-10T04:22:36.293Z,18.52
2023-04-10T04:25:24.238Z,17.98
2023-04-10T04:28:13.779Z,17.90
2023-04-10T04:31:01.858Z,17.50
2023-04-10T04:33:48.962Z,18.73
2023-04-10T04:36:36.149Z,19.30
2023-04-10T04:39:23.492Z,19.42
2023-04-10T04:42:10.617Z,18.88
2023-04-10T04:44:57.607Z,18.70
2023-04-10T04:47:44.692Z,18.88
2023-04-10T04:50:31.718Z,19.42
2023-04-10T04:53:18.749Z,19.63
2023-04-10T04:56:06.228Z,18.58
2023-04-10T04:58:53.543Z,19.83
2023-04-10T05:01:40.914Z,17.65
2023-04-10T05:04:28.105Z,18.90
2023-04-10T05:07:15.778Z,17.38
2023-04-10T05:10:02.896Z,17.85
2023-04-10T05:12:49.898Z,18.90
2023-04-10T05:15:36.997Z,16.95
2023-04-10T05:18:24.235Z,17.45
2023-04-10T05:21:11.391Z,17.38
2023-04-10T05:23:58.552Z,18.20
2023-04-10T05:26:45.877Z,16.08
2023-04-10T05:29:33.004Z,16.85
2023-04-10T05:32:20.106Z,17.15
2023-04-10T05:35:07.829Z,16.55
2023-04-10T05:37:54.878Z,17.40
2023-04-10T05:40:45.984Z,14.63
2023-04-10T05:43:33.084Z,14.55
2023-04-10T05:46:20.172Z,14.68
2023-04-10T05:49:08.364Z,14.95
2023-04-10T05:51:55.403Z,14.45
2023-04-10T05:54:42.490Z,15.60
2023-04-10T05:57:30.571Z,13.88
2023-04-10T06:00:18.719Z,13.68
2023-04-10T06:03:05.822Z,13.52
2023-04-10T06:05:53.869Z,14.10
2023-04-10T06:08:41.058Z,13.02
2023-04-10T06:11:28.185Z,14.25
2023-04-10T06:14:15.233Z,13.95
2023-04-10T06:17:02.366Z,14.15
2023-04-10T06:19:49.408Z,12.77
2023-04-10T06:22:36.465Z,12.77
2023-04-10T06:25:23.464Z,14.02
2023-04-10T06:28:10.549Z,13.25
2023-04-10T06:30:57.742Z,13.93
2023-04-10T06:33:44.866Z,13.45
2023-04-10T06:36:31.908Z,13.40
2023-04-10T06:39:19.622Z,14.27
2023-04-10T06:42:06.765Z,13.80
2023-04-10T06:44:53.873Z,13.75
2023-04-10T06:47:40.913Z,13.95
2023-04-10T06:50:28.132Z,14.18
2023-04-10T06:53:15.480Z,14.35
2023-04-10T06:56:03.693Z,14.15
2023-04-10T06:58:51.083Z,13.60
2023-04-10T07:01:38.387Z,12.15
2023-04-10T07:04:25.513Z,13.27
2023-04-10T07:07:13.532Z,13.85
2023-04-10T07:10:00.690Z,14.45
2023-04-10T07:12:48.803Z,13.65
2023-04-10T07:15:36.389Z,13.95
2023-04-10T07:18:23.574Z,13.13
2023-04-10T07:21:14.521Z,14.55
2023-04-10T07:24:02.009Z,13.55
2023-04-10T07:26:49.143Z,13.15
2023-04-10T07:29:36.444Z,13.02
2023-04-10T07:32:24.213Z,13.40
2023-04-10T07:35:11.508Z,13.20
2023-04-10T07:37:58.537Z,12.07
2023-04-10T07:40:45.737Z,12.20
2023-04-10T07:43:32.774Z,12.05
2023-04-10T07:46:21.064Z,11.73
2023-04-10T07:49:08.813Z,12.05
2023-04-10T07:51:56.125Z,12.10
2023-04-10T07:54:43.194Z,11.02
2023-04-10T07:57:32.424Z,11.27
2023-04-10T08:00:19.686Z,11.50
2023-04-10T08:03:07.494Z,11.25
2023-04-10T08:05:54.952Z,11.20
2023-04-10T08:08:43.102Z,11.32
2023-04-10T08:11:32.098Z,11.75
2023-04-10T08:14:19.141Z,12.27
2023-04-10T08:17:06.352Z,11.02
2023-04-10T08:19:53.432Z,12.02
2023-04-10T08:22:40.612Z,12.50
2023-04-10T08:25:27.687Z,12.38
2023-04-10T08:28:14.709Z,12.05
2023-04-10T08:35:57.421Z,12.90
2023-04-10T08:38:45.589Z,13.00
2023-04-10T08:41:33.078Z,13.48
2023-04-10T08:44:20.146Z,13.20
2023-04-10T08:47:08.736Z,12.40
2023-04-10T08:50:03.353Z,13.15
2023-04-10T08:52:53.099Z,12.52
2023-04-10T08:55:41.506Z,12.60
2023-04-10T08:58:28.774Z,13.20
2023-04-10T09:01:16.288Z,11.80
2023-04-10T09:04:03.553Z,12.55
2023-04-10T09:06:50.831Z,12.98
2023-04-10T09:09:38.193Z,12.55
2023-04-10T09:12:26.159Z,11.43
2023-04-10T09:15:14.238Z,12.52
2023-04-10T09:18:03.828Z,12.45
2023-04-10T09:20:51.823Z,13.20
2023-04-10T09:23:38.946Z,10.93
2023-04-10T09:26:28.763Z,12.13
2023-04-10T09:29:17.158Z,11.52
2023-04-10T09:32:04.421Z,11.40
2023-04-10T09:34:57.374Z,11.15
2023-04-10T09:37:46.012Z,9.45
2023-04-10T09:40:33.181Z,9.10
2023-04-10T09:43:25.872Z,9.63
2023-04-10T09:46:29.323Z,9.45
2023-04-10T09:49:16.475Z,8.90
2023-04-10T09:52:18.637Z,7.90
2023-04-10T09:55:08.879Z,8.07
2023-04-10T09:57:57.816Z,7.85
2023-04-10T10:00:47.133Z,6.53
2023-04-10T10:03:34.280Z,9.88
2023-04-10T10:06:22.230Z,7.50
2023-04-10T10:09:09.593Z,7.13
2023-04-10T10:11:58.191Z,8.30
2023-04-10T10:14:52.724Z,7.25
2023-04-10T10:17:46.814Z,8.25
2023-04-10T10:20:37.011Z,7.95
2023-04-10T10:23:26.184Z,8.25
2023-04-10T10:26:14.566Z,8.43
2023-04-10T10:29:09.090Z,7.70
2023-04-10T10:31:56.808Z,7.80
2023-04-10T10:34:44.893Z,8.07
2023-04-10T10:37:32.479Z,8.63
2023-04-10T10:40:38.827Z,8.38
2023-04-10T10:43:38.144Z,8.88
2023-04-10T10:46:51.361Z,8.25
2023-04-10T10:49:59.278Z,8.23
2023-04-10T10:52:53.061Z,8.35
2023-04-10T10:55:40.227Z,7.78
2023-04-10T10:58:48.520Z,7.75
2023-04-10T11:01:35.978Z,6.95
2023-04-10T11:04:48.813Z,7.72
2023-04-10T11:08:00.785Z,6.68
2023-04-10T11:11:05.909Z,7.60
2023-04-10T11:13:53.065Z,7.47
2023-04-10T11:16:46.926Z,6.18
2023-04-10T11:20:00.233Z,6.68
2023-04-10T11:23:13.278Z,7.18
2023-04-10T11:26:02.112Z,7.18
2023-04-10T11:28:49.165Z,7.47
2023-04-10T11:31:36.424Z,6.47
2023-04-10T11:34:23.971Z,6.88
2023-04-10T11:37:11.119Z,6.47
2023-04-10T11:40:07.812Z,6.38
2023-04-10T11:43:12.604Z,6.32
2023-04-10T11:46:08.071Z,6.68
2023-04-10T11:49:03.475Z,6.00
2023-04-10T11:51:51.804Z,6.15
2023-04-10T11:54:48.721Z,6.10
2023-04-10T11:57:36.383Z,5.82
2023-04-10T12:00:24.481Z,6.60
2023-04-10T12:03:11.714Z,5.82
2023-04-10T12:05:59.293Z,6.35
2023-04-10T12:08:49.493Z,4.90
2023-04-10T12:11:36.845Z,5.70
2023-04-10T12:14:29.287Z,6.05
2023-04-10T12:17:17.164Z,5.90
2023-04-10T12:20:06.482Z,5.63
2023-04-10T12:22:56.823Z,6.18
2023-04-10T12:25:44.142Z,5.90
2023-04-10T12:28:31.769Z,6.10
2023-04-10T12:31:19.152Z,6.80
2023-04-10T12:34:08.035Z,6.30
2023-04-10T12:36:58.267Z,6.15
2023-04-10T12:39:45.291Z,6.20
2023-04-10T12:42:40.401Z,5.95
2023-04-10T12:45:45.907Z,5.55
2023-04-10T12:48:33.374Z,5.95
2023-04-10T12:51:20.512Z,5.93
2023-04-10T12:54:07.594Z,5.95
2023-04-10T12:56:54.811Z,5.68
2023-04-10T12:59:42.538Z,5.93
2023-04-10T13:02:29.743Z,5.63
2023-04-10T13:05:17.117Z,5.47
2023-04-10T13:08:04.302Z,5.47
2023-04-10T13:10:51.440Z,5.68
2023-04-10T13:13:38.432Z,5.32
2023-04-10T13:16:25.760Z,5.90
2023-04-10T13:19:13.135Z,6.57
2023-04-10T13:22:01.450Z,5.65
2023-04-10T13:24:48.546Z,5.13
2023-04-10T13:27:35.673Z,5.13
2023-04-10T13:30:22.716Z,6.18
2023-04-10T13:33:10.863Z,5.78
2023-04-10T13:35:58.047Z,5.45
2023-04-10T13:38:45.398Z,5.25
2023-04-10T13:41:32.657Z,5.20
2023-04-10T13:44:19.818Z,5.65
2023-04-10T13:47:07.029Z,6.53
2023-04-10T13:49:54.127Z,5.20
2023-04-10T13:52:41.168Z,4.93
2023-04-10T13:55:28.274Z,5.15
2023-04-10T13:58:16.406Z,5.00
2023-04-10T14:01:03.610Z,4.70
2023-04-10T14:03:51.289Z,4.45
2023-04-10T14:06:38.438Z,4.30
2023-04-10T14:09:25.581Z,3.90
2023-04-10T14:12:13.193Z,3.58
2023-04-10T14:15:00.258Z,4.30
2023-04-10T14:17:47.423Z,4.10
2023-04-10T14:20:34.578Z,3.67
2023-04-10T14:23:22.544Z,4.20
2023-04-10T14:26:09.666Z,4.30
2023-04-10T14:28:56.974Z,3.63
2023-04-10T14:31:54.641Z,4.03
2023-04-10T14:34:44.559Z,4.05
2023-04-10T14:37:32.558Z,3.90
2023-04-10T14:40:19.640Z,4.20
2023-04-10T14:43:07.325Z,4.25
2023-04-10T14:45:54.409Z,3.95
2023-04-10T14:48:41.637Z,4.05
2023-04-10T14:51:28.983Z,4.18
2023-04-10T14:54:17.130Z,4.00
2023-04-10T14:57:04.732Z,3.58
2023-04-10T14:59:51.769Z,3.75
2023-04-10T15:02:39.178Z,3.53
2023-04-10T15:05:27.444Z,3.67
2023-04-10T15:08:14.513Z,3.92
2023-04-10T15:11:02.121Z,3.70
2023-04-10T15:13:49.249Z,4.38
2023-04-10T15:16:36.307Z,4.10
2023-04-10T15:19:23.494Z,4.40
2023-04-10T15:22:10.629Z,5.40
2023-04-10T15:24:57.822Z,5.03
2023-04-10T15:27:44.932Z,4.85
2023-04-10T15:30:32.125Z,5.38
2023-04-10T15:33:19.468Z,6.18
2023-04-10T15:36:08.129Z,6.15
2023-04-10T15:38:55.246Z,6.38
2023-04-10T15:41:42.473Z,5.90
2023-04-10T15:44:29.581Z,5.68
2023-04-10T15:47:16.690Z,5.78
2023-04-10T15:50:04.818Z,5.60
2023-04-10T15:52:52.102Z,6.90
2023-04-10T15:55:40.493Z,6.53
2023-04-10T15:58:27.658Z,7.28
2023-04-10T16:01:14.799Z,6.82
2023-04-10T16:04:01.997Z,7.00
2023-04-10T16:06:49.166Z,7.43
2023-04-10T16:09:36.282Z,8.10
2023-04-10T16:12:23.386Z,7.05
2023-04-10T16:15:10.594Z,7.22
2023-04-10T16:17:58.475Z,6.85
2023-04-10T16:20:45.706Z,7.10
2023-04-10T16:23:32.717Z,7.20
2023-04-10T16:26:19.828Z,6.47
2023-04-10T16:29:06.900Z,7.22
2023-04-10T16:31:54.036Z,7.43
2023-04-10T16:34:41.156Z,6.60
2023-04-10T16:37:28.385Z,7.50
2023-04-10T16:40:16.236Z,6.88
2023-04-10T16:43:05.266Z,7.03
2023-04-10T16:45:56.343Z,6.67
2023-04-10T16:48:43.496Z,6.60
2023-04-10T16:51:31.231Z,6.57
2023-04-10T16:54:18.431Z,7.05
2023-04-10T16:57:05.579Z,6.90
2023-04-10T16:59:58.175Z,7.10
2023-04-10T17:02:45.568Z,6.57
2023-04-10T17:05:35.671Z,6.13
2023-04-10T17:08:22.767Z,6.28
2023-04-10T17:11:09.902Z,5.55
2023-04-10T17:13:57.057Z,6.05
2023-04-10T17:16:44.273Z,5.90
2023-04-10T17:19:32.113Z,5.68
2023-04-10T17:22:20.762Z,5.45
2023-04-10T17:25:08.766Z,5.88
2023-04-10T17:27:57.289Z,5.85
2023-04-10T17:30:44.518Z,5.93
2023-04-10T17:33:31.600Z,5.70
2023-04-10T17:36:18.725Z,5.57
2023-04-10T17:39:06.110Z,5.57
2023-04-10T17:41:53.696Z,6.10
2023-04-10T17:44:41.199Z,5.50
2023-04-10T17:47:28.312Z,6.07
2023-04-10T17:50:15.720Z,6.22
2023-04-10T17:53:02.858Z,6.57
2023-04-10T17:55:50.220Z,6.38
2023-04-10T17:58:38.713Z,5.97
2023-04-10T18:01:30.093Z,6.68
2023-04-10T18:04:17.459Z,6.05
2023-04-10T18:07:04.745Z,7.10
2023-04-10T18:09:51.945Z,5.97
2023-04-10T18:12:40.858Z,6.25
2023-04-10T18:15:28.368Z,7.13
2023-04-10T18:18:15.580Z,7.38
2023-04-10T18:21:03.992Z,6.10
2023-04-10T18:23:51.701Z,6.40
2023-04-10T18:26:38.790Z,6.85
2023-04-10T18:29:27.477Z,6.53
2023-04-10T18:32:14.626Z,6.25
2023-04-10T18:35:03.925Z,6.65
2023-04-10T18:37:51.050Z,7.80
2023-04-10T18:40:38.488Z,7.38
2023-04-10T18:43:27.887Z,7.43
2023-04-10T18:46:15.696Z,6.88
2023-04-10T18:49:03.667Z,7.15
2023-04-10T18:51:51.021Z,6.88
2023-04-10T18:54:40.948Z,7.30
2023-04-10T18:57:28.243Z,7.70
2023-04-10T19:00:15.619Z,8.85
2023-04-10T19:03:03.841Z,7.47
2023-04-10T19:05:51.511Z,6.80
2023-04-10T19:08:39.362Z,8.82
2023-04-10T19:11:26.766Z,8.82
2023-04-10T19:14:13.939Z,7.97
2023-04-10T19:17:06.160Z,7.57
2023-04-10T19:19:54.283Z,7.90
2023-04-10T19:22:41.584Z,8.70
2023-04-10T19:25:29.671Z,8.27
2023-04-10T19:28:17.148Z,7.90
2023-04-10T19:31:04.991Z,8.18
2023-04-10T19:33:52.193Z,8.80
2023-04-10T19:36:42.456Z,7.78
2023-04-10T19:39:29.655Z,8.10
2023-04-10T19:42:16.749Z,8.43
2023-04-10T19:45:04.054Z,7.75
2023-04-10T19:47:51.237Z,7.50
2023-04-10T19:50:39.599Z,8.32
2023-04-10T19:53:26.832Z,9.13
2023-04-10T19:56:16.553Z,8.93
2023-04-10T19:59:04.030Z,10.27
2023-04-10T20:01:51.281Z,10.52
2023-04-10T20:04:38.809Z,12.13
2023-04-10T20:07:26.062Z,11.63
2023-04-10T20:10:13.572Z,12.25
2023-04-10T20:13:02.721Z,11.27
2023-04-10T20:15:50.048Z,9.95
2023-04-10T20:18:38.830Z,8.68
2023-04-10T20:21:27.260Z,10.10
2023-04-10T20:24:14.356Z,10.90
2023-04-10T20:27:02.502Z,11.05
2023-04-10T20:29:50.318Z,10.18
2023-04-10T20:32:37.813Z,9.48
2023-04-10T20:37:53.571Z,9.93
2023-04-10T20:40:40.659Z,9.70
2023-04-10T20:43:27.757Z,10.63
2023-04-10T20:46:15.199Z,9.45
2023-04-10T20:49:03.610Z,9.95
2023-04-10T20:51:51.002Z,9.32
2023-04-10T20:54:38.047Z,10.95
2023-04-10T20:57:25.105Z,10.65
2023-04-10T21:00:13.190Z,12.05
2023-04-10T21:03:00.451Z,11.88
2023-04-10T21:05:47.687Z,11.50
2023-04-10T21:08:35.762Z,10.73
2023-04-10T21:11:22.972Z,11.35
2023-04-10T21:14:10.074Z,10.75
2023-04-10T21:16:57.205Z,11.43
2023-04-10T21:19:44.844Z,12.07
2023-04-10T21:22:31.968Z,11.50
2023-04-10T21:25:19.015Z,11.00
2023-04-10T21:28:06.170Z,12.60
2023-04-10T21:30:53.328Z,11.45
2023-04-10T21:33:40.623Z,12.88
2023-04-10T21:36:27.766Z,12.93
2023-04-10T21:39:14.786Z,12.68
2023-04-10T21:42:01.795Z,12.10
2023-04-10T21:44:48.896Z,12.68
2023-04-10T21:47:36.023Z,13.13
2023-04-10T21:50:24.917Z,12.32
2023-04-10T21:53:12.045Z,12.82
2023-04-10T21:55:59.200Z,14.95
2023-04-10T21:58:46.241Z,15.65
2023-04-10T22:01:34.161Z,14.27
2023-04-10T22:04:21.326Z,13.55
2023-04-10T22:07:08.465Z,15.00
2023-04-10T22:09:55.578Z,13.57
2023-04-10T22:12:42.630Z,14.75
2023-04-10T22:15:29.692Z,15.68
2023-04-10T22:18:18.666Z,14.27
2023-04-10T22:21:05.832Z,15.13
2023-04-10T22:23:53.153Z,15.00
2023-04-10T22:26:42.235Z,13.00
2023-04-10T22:29:29.344Z,13.10
2023-04-10T22:32:16.447Z,14.40
2023-04-10T22:35:03.786Z,14.02
2023-04-10T22:37:50.980Z,13.77
2023-04-10T22:40:38.026Z,14.88
2023-04-10T22:43:25.141Z,14.63
2023-04-10T22:46:12.232Z,15.52
2023-04-10T22:48:59.347Z,14.88
2023-04-10T22:51:46.485Z,15.23
2023-04-10T22:54:33.643Z,14.45
2023-04-10T22:57:20.998Z,14.35
2023-04-10T23:03:33.751Z,13.20
2023-04-10T23:06:20.909Z,13.48
2023-04-10T23:09:08.153Z,13.40
2023-04-10T23:11:55.221Z,12.68
2023-04-10T23:14:42.310Z,12.77
2023-04-10T23:17:29.409Z,12.75
2023-04-10T23:20:16.686Z,11.52
2023-04-10T23:23:04.041Z,11.63
2023-04-10T23:25:57.979Z,12.60
2023-04-10T23:28:45.062Z,11.77
2023-04-10T23:31:32.211Z,12.18
2023-04-10T23:34:20.943Z,12.70
2023-04-10T23:37:08.358Z,14.32
2023-04-10T23:39:55.366Z,13.90
2023-04-10T23:42:42.477Z,13.85
2023-04-10T23:45:29.593Z,12.82
2023-04-10T23:48:16.709Z,13.55
2023-04-10T23:51:05.411Z,13.18
2023-04-10T23:53:52.623Z,11.70
2023-04-10T23:56:39.672Z,12.18
2023-04-10T23:59:26.841Z,13.27
